Terminal Aerodrome Forecast
Issued by NWS

Home | Current Version | Previous Version | Graphics & Text | Print | Product List | Glossary On
Versions: 1 2 3 4 5 6 7 8 9 10 11 12 13 14 15 16 17 18 19 20 21 22 23 24 25 26
000
FTUS43 KBIS 271100 AAA
TAFMOT
TAF AMD
KMOT 271102Z 2711/2806 18004KT P6SM SCT007 SCT015
      TEMPO 2711/2714 BKN007 OVC015
     FM271400 18006KT P6SM BKN007 OVC012
     FM271700 16012KT 6SM -SN BR OVC007
     FM271900 13009KT 1SM -SN SCT008 OVC015
     FM280000 12010KT 5SM -SN BR OVC015=

USA.gov is the U.S. government's official web portal to all federal, state and local government web resources and services.